Terminal Aerodrome Forecast
Issued by NWS

Home | Current Version | Previous Version | Text Only | Print | Product List | Glossary On
Versions: 1 2 3 4 5 6 7 8 9 10 11 12 13 14 15 16 17 18 19
000
FTUS44 KLZK 181734
TAFPBF
TAF
KPBF 181734Z 1818/1918 24014G28KT P6SM VCSH BKN050 WS020/24050KT
     FM182100 30015G28KT P6SM SCT025 BKN050
     FM190300 33010KT P6SM SCT030 BKN250=

USA.gov is the U.S. government's official web portal to all federal, state and local government web resources and services.